createdAt,value
2016-11-24T00:00:43.947Z,0
2016-11-24T00:01:43.918Z,0
2016-11-24T00:02:43.915Z,0
2016-11-24T00:03:43.913Z,0
2016-11-24T00:04:43.895Z,0
2016-11-24T00:05:43.888Z,0
2016-11-24T00:06:43.878Z,0
2016-11-24T00:07:43.860Z,0
2016-11-24T00:08:43.854Z,0
2016-11-24T00:09:43.852Z,0
2016-11-24T00:10:44.153Z,0
2016-11-24T00:11:43.833Z,0
2016-11-24T00:12:43.826Z,0
2016-11-24T00:13:43.811Z,0
2016-11-24T00:14:43.809Z,0
2016-11-24T00:15:43.798Z,0
2016-11-24T00:16:43.783Z,0
2016-11-24T00:17:43.806Z,0
2016-11-24T00:18:43.758Z,0
2016-11-24T00:19:43.755Z,0
2016-11-24T00:20:43.749Z,0
2016-11-24T00:21:44.045Z,0
2016-11-24T00:22:43.727Z,0
2016-11-24T00:23:43.709Z,0
2016-11-24T00:24:43.709Z,0
2016-11-24T00:25:43.689Z,0
2016-11-24T00:26:43.686Z,0
2016-11-24T00:27:43.682Z,0
2016-11-24T00:28:43.670Z,0
2016-11-24T00:29:43.657Z,0
2016-11-24T00:30:43.654Z,0
2016-11-24T00:31:43.645Z,0
2016-11-24T00:32:43.658Z,0
2016-11-24T00:33:43.627Z,0
2016-11-24T00:34:43.615Z,0
2016-11-24T00:35:43.599Z,0
2016-11-24T00:36:43.589Z,0
2016-11-24T00:37:43.577Z,0
2016-11-24T00:38:43.570Z,0
2016-11-24T00:39:43.563Z,0
2016-11-24T00:40:43.556Z,0
2016-11-24T00:41:43.539Z,0
2016-11-24T00:42:43.545Z,0
2016-11-24T00:43:43.529Z,0
2016-11-24T00:44:43.512Z,0
2016-11-24T00:45:43.500Z,0
2016-11-24T00:46:43.494Z,0
2016-11-24T00:47:43.484Z,0
2016-11-24T00:48:43.783Z,0
2016-11-24T00:49:43.461Z,0
2016-11-24T00:50:43.458Z,0
2016-11-24T00:51:43.455Z,0
2016-11-24T00:52:43.434Z,0
2016-11-24T00:53:43.421Z,0
2016-11-24T00:54:43.416Z,0
2016-11-24T00:55:43.408Z,0
2016-11-24T00:56:43.394Z,0
2016-11-24T00:57:43.390Z,0
2016-11-24T00:58:43.377Z,0
2016-11-24T00:59:43.373Z,0
2016-11-24T01:00:43.361Z,0
2016-11-24T01:01:43.357Z,0
2016-11-24T01:02:43.348Z,0
2016-11-24T01:03:43.341Z,0
2016-11-24T01:04:43.323Z,0
2016-11-24T01:05:43.312Z,0
2016-11-24T01:06:43.301Z,0
2016-11-24T01:07:43.602Z,0
2016-11-24T01:08:43.282Z,0
2016-11-24T01:09:43.268Z,0
2016-11-24T01:10:43.265Z,0
2016-11-24T01:11:43.254Z,0
2016-11-24T01:12:43.246Z,0
2016-11-24T01:13:43.248Z,0
2016-11-24T01:14:43.226Z,0
2016-11-24T01:15:43.219Z,0
2016-11-24T01:16:43.201Z,0
2016-11-24T01:17:43.202Z,0
2016-11-24T01:18:43.191Z,0
2016-11-24T01:19:43.178Z,0
2016-11-24T01:20:43.165Z,0
2016-11-24T01:21:43.175Z,0
2016-11-24T01:22:43.149Z,0
2016-11-24T01:23:43.145Z,0
2016-11-24T01:24:43.156Z,0
2016-11-24T01:25:43.127Z,0
2016-11-24T01:26:43.109Z,0
2016-11-24T01:27:43.097Z,0
2016-11-24T01:28:43.091Z,0
2016-11-24T01:29:43.088Z,0
2016-11-24T01:30:43.125Z,0
2016-11-24T01:31:43.062Z,0
2016-11-24T01:32:43.056Z,0
2016-11-24T01:33:43.045Z,0
2016-11-24T01:34:43.072Z,0
2016-11-24T01:35:43.055Z,0
2016-11-24T01:36:43.014Z,0
2016-11-24T01:37:43.004Z,0
2016-11-24T01:38:42.993Z,0
2016-11-24T01:39:42.989Z,0
2016-11-24T01:40:42.986Z,0
2016-11-24T01:41:42.966Z,0
2016-11-24T01:42:42.968Z,0
2016-11-24T01:43:43.256Z,0
2016-11-24T01:44:42.945Z,0
2016-11-24T01:45:42.931Z,0
2016-11-24T01:46:42.920Z,0
2016-11-24T01:47:42.913Z,0
2016-11-24T01:48:42.899Z,0
2016-11-24T01:49:42.900Z,0
2016-11-24T01:50:42.876Z,0
2016-11-24T01:51:42.875Z,0
2016-11-24T01:52:42.863Z,0
2016-11-24T01:53:42.859Z,0
2016-11-24T01:54:42.850Z,0
2016-11-24T01:55:42.889Z,0
2016-11-24T01:56:42.829Z,0
2016-11-24T01:57:42.811Z,0
2016-11-24T01:58:42.806Z,0
2016-11-24T01:59:42.805Z,0
2016-11-24T02:00:42.789Z,0
2016-11-24T02:01:42.780Z,0
2016-11-24T02:02:42.768Z,0
2016-11-24T02:03:42.755Z,0
2016-11-24T02:04:42.780Z,0
2016-11-24T02:05:42.740Z,0
2016-11-24T02:06:42.728Z,0
2016-11-24T02:07:42.719Z,0
2016-11-24T02:08:42.718Z,0
2016-11-24T02:09:42.710Z,0
2016-11-24T02:10:42.695Z,0
2016-11-24T02:11:42.686Z,0
2016-11-24T02:12:42.708Z,0
2016-11-24T02:13:42.658Z,0
2016-11-24T02:14:42.658Z,0
2016-11-24T02:15:42.647Z,0
2016-11-24T02:16:42.634Z,0
2016-11-24T02:17:42.623Z,0
2016-11-24T02:18:42.616Z,0
2016-11-24T02:19:42.601Z,0
2016-11-24T02:20:42.603Z,0
2016-11-24T02:21:42.590Z,0
2016-11-24T02:22:42.577Z,0
2016-11-24T02:23:42.571Z,0
2016-11-24T02:24:42.558Z,0
2016-11-24T02:25:42.547Z,0
2016-11-24T02:26:42.544Z,0
2016-11-24T02:27:42.528Z,0
2016-11-24T02:28:42.512Z,0
2016-11-24T02:29:42.821Z,0
2016-11-24T02:30:42.505Z,0
2016-11-24T02:31:42.486Z,0
2016-11-24T02:32:42.512Z,0
2016-11-24T02:33:42.473Z,0
2016-11-24T02:34:42.469Z,0
2016-11-24T02:35:42.447Z,0
2016-11-24T02:36:42.478Z,0
2016-11-24T02:37:42.735Z,0
2016-11-24T02:38:42.426Z,0
2016-11-24T02:39:42.417Z,0
2016-11-24T02:40:42.745Z,0
2016-11-24T02:41:42.410Z,0
2016-11-24T02:42:42.425Z,0
2016-11-24T02:43:42.369Z,0
2016-11-24T02:44:42.367Z,0
2016-11-24T02:45:42.355Z,0
2016-11-24T02:46:42.348Z,0
2016-11-24T02:47:42.339Z,0
2016-11-24T02:48:42.329Z,0
2016-11-24T02:49:42.322Z,0
2016-11-24T02:50:42.309Z,0
2016-11-24T02:51:42.299Z,0
2016-11-24T02:52:42.287Z,0
2016-11-24T02:53:42.275Z,0
2016-11-24T02:54:42.269Z,0
2016-11-24T02:55:42.262Z,0
2016-11-24T02:56:42.247Z,0
2016-11-24T02:57:42.250Z,0
2016-11-24T02:58:42.235Z,0
2016-11-24T02:59:42.227Z,0
2016-11-24T03:00:42.205Z,0
2016-11-24T03:01:42.203Z,0
2016-11-24T03:02:42.197Z,0
2016-11-24T03:03:42.190Z,0
2016-11-24T03:04:42.473Z,0
2016-11-24T03:05:42.163Z,0
2016-11-24T03:06:42.151Z,0
2016-11-24T03:07:42.140Z,0
2016-11-24T03:08:42.139Z,0
2016-11-24T03:09:42.436Z,0
2016-11-24T03:10:42.432Z,0
2016-11-24T03:11:42.105Z,0
2016-11-24T03:12:42.095Z,0
2016-11-24T03:13:42.092Z,0
2016-11-24T03:14:42.081Z,0
2016-11-24T03:15:42.065Z,0
2016-11-24T03:16:42.062Z,0
2016-11-24T03:17:42.392Z,0
2016-11-24T03:18:42.035Z,0
2016-11-24T03:19:42.024Z,0
2016-11-24T03:20:42.028Z,0
2016-11-24T03:21:42.037Z,0
2016-11-24T03:22:41.994Z,0
2016-11-24T03:23:41.994Z,0
2016-11-24T03:24:41.974Z,0
2016-11-24T03:25:41.978Z,0
2016-11-24T03:26:41.956Z,0
2016-11-24T03:27:41.952Z,0
2016-11-24T03:28:41.933Z,0
2016-11-24T03:29:41.933Z,0
2016-11-24T03:30:41.955Z,0
2016-11-24T03:31:41.909Z,0
2016-11-24T03:32:41.906Z,0
2016-11-24T03:33:41.898Z,0
2016-11-24T03:34:41.878Z,0
2016-11-24T03:35:41.869Z,0
2016-11-24T03:36:41.872Z,0
2016-11-24T03:37:41.858Z,0
2016-11-24T03:38:41.845Z,0
2016-11-24T03:39:41.842Z,0
2016-11-24T03:40:41.821Z,0
2016-11-24T03:41:41.840Z,0
2016-11-24T03:42:41.803Z,0
2016-11-24T03:43:41.792Z,0
2016-11-24T03:44:41.788Z,0
2016-11-24T03:45:41.774Z,0
2016-11-24T03:46:41.776Z,0
2016-11-24T03:47:41.754Z,0
2016-11-24T03:48:41.743Z,0
2016-11-24T03:49:41.733Z,0
2016-11-24T03:50:41.717Z,0
2016-11-24T03:51:41.718Z,0
2016-11-24T03:52:41.702Z,0
2016-11-24T03:53:41.694Z,0
2016-11-24T03:54:41.693Z,0
2016-11-24T03:55:41.669Z,0
2016-11-24T03:56:41.660Z,0
2016-11-24T03:57:41.651Z,0
2016-11-24T03:58:41.649Z,0
2016-11-24T03:59:41.638Z,0
2016-11-24T04:00:41.618Z,0
2016-11-24T04:01:41.620Z,0
2016-11-24T04:02:41.602Z,0
2016-11-24T04:03:41.587Z,0
2016-11-24T04:04:41.598Z,0
2016-11-24T04:05:41.586Z,0
2016-11-24T04:06:41.569Z,0
2016-11-24T04:07:41.557Z,0
2016-11-24T04:08:41.543Z,0
2016-11-24T04:09:41.538Z,0
2016-11-24T04:10:41.520Z,0
2016-11-24T04:11:41.510Z,0
2016-11-24T04:12:41.513Z,0
2016-11-24T04:13:41.490Z,0
2016-11-24T04:14:41.483Z,0
2016-11-24T04:15:41.465Z,0
2016-11-24T04:16:41.460Z,0
2016-11-24T04:17:41.453Z,0
2016-11-24T04:18:41.447Z,0
2016-11-24T04:19:41.436Z,0
2016-11-24T04:20:41.426Z,0
2016-11-24T04:21:41.412Z,0
2016-11-24T04:22:41.395Z,0
2016-11-24T04:23:41.396Z,0
2016-11-24T04:24:41.381Z,0
2016-11-24T04:25:41.368Z,0
2016-11-24T04:26:41.364Z,0
2016-11-24T04:27:41.356Z,0
2016-11-24T04:28:41.338Z,0
2016-11-24T04:29:41.327Z,0
2016-11-24T04:30:41.325Z,0
2016-11-24T04:31:41.339Z,0
2016-11-24T04:32:41.288Z,0
2016-11-24T04:33:41.280Z,0
2016-11-24T04:34:41.280Z,0
2016-11-24T04:35:41.259Z,0
2016-11-24T04:36:41.262Z,0
2016-11-24T04:37:41.240Z,0
2016-11-24T04:38:41.241Z,0
2016-11-24T04:39:41.227Z,0
2016-11-24T04:40:41.214Z,0
2016-11-24T04:41:41.202Z,0
2016-11-24T04:42:41.199Z,0
2016-11-24T04:43:41.180Z,0
2016-11-24T04:44:41.478Z,0
2016-11-24T04:45:41.165Z,0
2016-11-24T04:46:41.155Z,0
2016-11-24T04:47:41.176Z,0
2016-11-24T04:48:41.131Z,0
2016-11-24T04:49:41.129Z,0
2016-11-24T04:50:41.105Z,0
2016-11-24T04:51:41.098Z,0
2016-11-24T04:52:41.096Z,0
2016-11-24T04:53:41.079Z,0
2016-11-24T04:54:41.067Z,0
2016-11-24T04:55:41.060Z,0
2016-11-24T04:56:41.047Z,0
2016-11-24T04:57:41.079Z,0
2016-11-24T04:58:41.030Z,0
2016-11-24T04:59:41.024Z,0
2016-11-24T05:00:41.050Z,0
2016-11-24T05:01:41.000Z,0
2016-11-24T05:02:40.996Z,0
2016-11-24T05:03:40.982Z,0
2016-11-24T05:04:40.972Z,0
2016-11-24T05:05:40.966Z,0
2016-11-24T05:06:40.957Z,0
2016-11-24T05:07:40.940Z,0
2016-11-24T05:08:40.927Z,0
2016-11-24T05:09:40.918Z,0
2016-11-24T05:10:40.908Z,0
2016-11-24T05:11:40.898Z,0
2016-11-24T05:12:40.892Z,0
2016-11-24T05:13:40.873Z,0
2016-11-24T05:14:40.867Z,0
2016-11-24T05:15:40.855Z,0
2016-11-24T05:16:40.851Z,0
2016-11-24T05:17:40.843Z,0
2016-11-24T05:18:40.831Z,0
2016-11-24T05:19:40.821Z,0
2016-11-24T05:20:40.813Z,0
2016-11-24T05:21:40.796Z,0
2016-11-24T05:22:40.785Z,0
2016-11-24T05:23:40.776Z,0
2016-11-24T05:24:40.772Z,0
2016-11-24T05:25:40.755Z,0
2016-11-24T05:26:40.744Z,0
2016-11-24T05:27:40.735Z,0
2016-11-24T05:28:40.730Z,0
2016-11-24T05:29:40.716Z,0
2016-11-24T05:30:40.735Z,0
2016-11-24T05:31:40.692Z,0
2016-11-24T05:32:40.684Z,0
2016-11-24T05:33:40.672Z,0
2016-11-24T05:34:40.657Z,0
2016-11-24T05:35:40.659Z,0
2016-11-24T05:36:40.643Z,0
2016-11-24T05:37:40.634Z,0
2016-11-24T05:38:40.632Z,20
2016-11-24T05:39:40.615Z,32
2016-11-24T05:40:40.610Z,36
2016-11-24T05:41:40.595Z,36
2016-11-24T05:42:40.579Z,40
2016-11-24T05:43:40.565Z,40
2016-11-24T05:44:40.571Z,40
2016-11-24T05:45:40.580Z,40
2016-11-24T05:46:40.537Z,40
2016-11-24T05:47:40.532Z,40
2016-11-24T05:48:40.514Z,40
2016-11-24T05:49:40.521Z,40
2016-11-24T05:50:40.508Z,40
2016-11-24T05:51:40.503Z,40
2016-11-24T05:52:40.481Z,40
2016-11-24T05:53:40.478Z,40
2016-11-24T05:54:40.461Z,40
2016-11-24T05:55:40.447Z,40
2016-11-24T05:56:40.451Z,40
2016-11-24T05:57:40.427Z,40
2016-11-24T05:58:40.424Z,40
2016-11-24T05:59:40.412Z,0
2016-11-24T06:00:40.398Z,0
2016-11-24T06:01:40.399Z,0
2016-11-24T06:02:40.423Z,0
2016-11-24T06:03:40.408Z,0
2016-11-24T06:04:40.664Z,0
2016-11-24T06:05:40.345Z,0
2016-11-24T06:06:40.654Z,0
2016-11-24T06:07:40.335Z,0
2016-11-24T06:08:40.321Z,0
2016-11-24T06:09:40.314Z,0
2016-11-24T06:10:40.304Z,4
2016-11-24T06:11:40.296Z,4
2016-11-24T06:12:40.284Z,4
2016-11-24T06:13:40.267Z,4
2016-11-24T06:14:40.257Z,4
2016-11-24T06:15:40.254Z,4
2016-11-24T06:16:40.255Z,4
2016-11-24T06:17:40.232Z,8
2016-11-24T06:18:40.219Z,8
2016-11-24T06:19:40.258Z,8
2016-11-24T06:20:40.229Z,8
2016-11-24T06:21:40.195Z,16
2016-11-24T06:22:40.186Z,16
2016-11-24T06:23:40.174Z,16
2016-11-24T06:24:40.169Z,20
2016-11-24T06:25:40.155Z,20
2016-11-24T06:26:40.146Z,24
2016-11-24T06:27:40.137Z,32
2016-11-24T06:28:40.129Z,36
2016-11-24T06:29:40.110Z,40
2016-11-24T06:30:40.104Z,40
2016-11-24T06:31:40.101Z,44
2016-11-24T06:32:40.396Z,52
2016-11-24T06:33:40.072Z,52
2016-11-24T06:34:40.405Z,60
2016-11-24T06:35:40.050Z,64
2016-11-24T06:36:40.056Z,68
2016-11-24T06:37:40.043Z,80
2016-11-24T06:38:40.329Z,92
2016-11-24T06:39:40.019Z,104
2016-11-24T06:40:40.011Z,108
2016-11-24T06:41:39.994Z,120
2016-11-24T06:42:39.987Z,132
2016-11-24T06:43:39.980Z,144
2016-11-24T06:44:39.963Z,164
2016-11-24T06:45:39.948Z,168
2016-11-24T06:46:39.949Z,184
2016-11-24T06:47:39.929Z,196
2016-11-24T06:48:39.935Z,224
2016-11-24T06:49:39.920Z,236
2016-11-24T06:50:39.909Z,248
2016-11-24T06:51:39.911Z,252
2016-11-24T06:52:39.889Z,252
2016-11-24T06:53:39.887Z,280
2016-11-24T06:54:39.880Z,300
2016-11-24T06:55:39.855Z,328
2016-11-24T06:56:40.161Z,360
2016-11-24T06:57:39.848Z,396
2016-11-24T06:58:40.136Z,424
2016-11-24T06:59:39.824Z,428
2016-11-24T07:00:39.814Z,440
2016-11-24T07:01:39.792Z,480
2016-11-24T07:02:39.789Z,504
2016-11-24T07:03:39.780Z,528
2016-11-24T07:04:39.768Z,524
2016-11-24T07:05:39.763Z,536
2016-11-24T07:06:39.754Z,576
2016-11-24T07:07:39.739Z,604
2016-11-24T07:08:39.734Z,672
2016-11-24T07:09:39.722Z,700
2016-11-24T07:10:39.711Z,740
2016-11-24T07:11:40.023Z,800
2016-11-24T07:12:39.683Z,820
2016-11-24T07:13:39.686Z,856
2016-11-24T07:14:39.674Z,888
2016-11-24T07:15:39.681Z,928
2016-11-24T07:16:39.691Z,996
2016-11-24T07:17:39.649Z,992
2016-11-24T07:18:39.638Z,964
2016-11-24T07:19:39.635Z,1000
2016-11-24T07:20:39.654Z,992
2016-11-24T07:21:39.613Z,956
2016-11-24T07:22:39.595Z,932
2016-11-24T07:23:39.597Z,988
2016-11-24T07:24:39.570Z,1004
2016-11-24T07:25:39.563Z,1016
2016-11-24T07:26:39.548Z,1012
2016-11-24T07:27:39.545Z,1012
2016-11-24T07:28:39.544Z,1080
2016-11-24T07:29:39.537Z,1124
2016-11-24T07:30:39.517Z,1176
2016-11-24T07:31:39.516Z,1224
2016-11-24T07:32:39.499Z,1220
2016-11-24T07:33:39.494Z,1260
2016-11-24T07:34:39.475Z,1348
2016-11-24T07:35:39.474Z,1340
2016-11-24T07:36:39.466Z,1388
2016-11-24T07:37:39.455Z,1468
2016-11-24T07:38:39.449Z,1504
2016-11-24T07:39:39.428Z,1448
2016-11-24T07:40:39.427Z,1436
2016-11-24T07:41:39.416Z,1488
2016-11-24T07:42:39.398Z,1580
2016-11-24T07:43:39.394Z,1684
2016-11-24T07:44:39.391Z,1716
2016-11-24T07:45:39.385Z,1804
2016-11-24T07:46:39.367Z,1864
2016-11-24T07:47:39.363Z,1940
2016-11-24T07:48:39.340Z,2016
2016-11-24T07:49:39.346Z,2064
2016-11-24T07:50:39.329Z,2136
2016-11-24T07:51:39.320Z,2152
2016-11-24T07:52:39.313Z,2292
2016-11-24T07:53:39.305Z,2376
2016-11-24T07:54:39.299Z,2412
2016-11-24T07:55:39.293Z,2268
2016-11-24T07:56:39.584Z,2252
2016-11-24T07:57:39.267Z,2256
2016-11-24T07:58:39.263Z,2348
2016-11-24T07:59:39.246Z,2324
2016-11-24T08:00:39.243Z,2340
2016-11-24T08:01:39.222Z,2428
2016-11-24T08:02:39.216Z,2412
2016-11-24T08:03:39.208Z,2664
2016-11-24T08:04:39.231Z,2956
2016-11-24T08:05:39.189Z,3092
2016-11-24T08:06:39.178Z,3492
2016-11-24T08:07:39.170Z,3760
2016-11-24T08:08:39.162Z,4584
2016-11-24T08:09:39.464Z,5540
2016-11-24T08:10:39.146Z,5724
2016-11-24T08:11:39.449Z,6160
2016-11-24T08:12:39.127Z,6396
2016-11-24T08:13:39.121Z,6400
2016-11-24T08:14:39.426Z,6660
2016-11-24T08:15:39.098Z,6824
2016-11-24T08:16:39.079Z,6924
2016-11-24T08:17:39.079Z,6988
2016-11-24T08:18:39.068Z,7076
2016-11-24T08:19:39.066Z,7148
2016-11-24T08:20:39.063Z,7236
2016-11-24T08:21:39.042Z,7300
2016-11-24T08:22:39.035Z,7388
2016-11-24T08:23:39.024Z,7448
2016-11-24T08:24:39.008Z,7528
2016-11-24T08:25:39.033Z,7600
2016-11-24T08:26:39.000Z,7612
2016-11-24T08:27:38.991Z,7528
2016-11-24T08:28:38.980Z,7368
2016-11-24T08:29:39.274Z,6848
2016-11-24T08:30:38.957Z,6872
2016-11-24T08:31:38.956Z,6992
2016-11-24T08:32:38.955Z,7016
2016-11-24T08:33:38.939Z,7208
2016-11-24T08:34:38.933Z,7104
2016-11-24T08:35:38.912Z,7168
2016-11-24T08:36:38.906Z,7144
2016-11-24T08:37:38.903Z,7232
2016-11-24T08:38:38.891Z,7076
2016-11-24T08:39:38.881Z,7224
2016-11-24T08:40:38.915Z,6856
2016-11-24T08:41:38.869Z,7136
2016-11-24T08:42:38.894Z,7168
2016-11-24T08:43:38.853Z,7104
2016-11-24T08:44:38.842Z,7384
2016-11-24T08:45:39.133Z,7240
2016-11-24T08:46:38.834Z,6852
2016-11-24T08:47:38.814Z,7192
2016-11-24T08:48:38.812Z,6660
2016-11-24T08:49:38.800Z,6460
2016-11-24T08:50:38.811Z,6504
2016-11-24T08:51:38.788Z,6448
2016-11-24T08:52:38.769Z,6128
2016-11-24T08:53:38.777Z,6092
2016-11-24T08:54:38.759Z,6192
2016-11-24T08:55:38.754Z,6136
2016-11-24T08:56:38.733Z,6088
2016-11-24T08:57:38.735Z,6096
2016-11-24T08:58:38.725Z,6128
2016-11-24T08:59:38.712Z,6000
2016-11-24T09:00:38.708Z,6004
2016-11-24T09:01:38.703Z,5900
2016-11-24T09:02:38.706Z,5860
2016-11-24T09:03:38.677Z,5952
2016-11-24T09:04:38.669Z,5884
2016-11-24T09:05:38.656Z,5948
2016-11-24T09:06:38.955Z,5924
2016-11-24T09:07:38.637Z,6024
2016-11-24T09:08:38.640Z,5988
2016-11-24T09:09:38.631Z,5888
2016-11-24T09:10:38.628Z,5968
2016-11-24T09:11:38.613Z,5876
2016-11-24T09:12:38.598Z,5924
2016-11-24T09:13:38.591Z,5736
2016-11-24T09:14:38.587Z,5584
2016-11-24T09:15:38.569Z,5364
2016-11-24T09:16:38.588Z,5296
2016-11-24T09:17:38.561Z,5168
2016-11-24T09:18:38.548Z,5028
2016-11-24T09:19:38.534Z,4928
2016-11-24T09:20:38.540Z,4800
2016-11-24T09:21:38.525Z,4724
2016-11-24T09:22:38.511Z,4680
2016-11-24T09:23:38.549Z,4608
2016-11-24T09:24:38.499Z,4568
2016-11-24T09:25:38.488Z,4528
2016-11-24T09:26:38.485Z,4492
2016-11-24T09:27:38.474Z,4460
2016-11-24T09:28:38.462Z,4444
2016-11-24T09:29:38.442Z,4388
2016-11-24T09:30:38.450Z,4304
2016-11-24T09:31:38.442Z,4260
2016-11-24T09:32:38.425Z,4224
2016-11-24T09:33:38.419Z,4172
2016-11-24T09:34:38.406Z,4124
2016-11-24T09:35:38.401Z,4188
2016-11-24T09:36:38.391Z,4244
2016-11-24T09:37:38.700Z,4224
2016-11-24T09:38:38.369Z,4236
2016-11-24T09:39:38.359Z,4028
2016-11-24T09:40:38.356Z,4016
2016-11-24T09:41:38.336Z,4004
2016-11-24T09:42:38.332Z,4008
2016-11-24T09:43:38.633Z,4000
2016-11-24T09:44:38.320Z,4036
2016-11-24T09:45:38.311Z,3996
2016-11-24T09:46:38.302Z,4240
2016-11-24T09:47:38.592Z,3944
2016-11-24T09:48:38.290Z,3844
2016-11-24T09:49:38.280Z,3828
2016-11-24T09:50:38.261Z,3784
2016-11-24T09:51:38.253Z,3776
2016-11-24T09:52:38.245Z,3744
2016-11-24T09:53:38.242Z,3780
2016-11-24T09:54:38.230Z,3760
2016-11-24T09:55:38.225Z,3676
2016-11-24T09:56:38.212Z,3696
2016-11-24T09:57:38.194Z,3700
2016-11-24T09:58:38.190Z,3676
2016-11-24T09:59:38.181Z,3660
2016-11-24T10:00:38.171Z,3652
2016-11-24T10:01:38.159Z,3640
2016-11-24T10:02:38.156Z,3644
2016-11-24T10:03:38.143Z,3696
2016-11-24T10:04:38.140Z,3740
2016-11-24T10:05:38.124Z,3760
2016-11-24T10:06:38.122Z,3808
2016-11-24T10:07:38.099Z,3804
2016-11-24T10:08:38.099Z,3716
2016-11-24T10:09:38.087Z,3684
2016-11-24T10:10:38.075Z,3680
2016-11-24T10:11:38.061Z,3660
2016-11-24T10:12:38.062Z,3644
2016-11-24T10:13:38.048Z,3648
2016-11-24T10:14:38.045Z,3648
2016-11-24T10:15:38.028Z,3636
2016-11-24T10:16:38.023Z,3584
2016-11-24T10:17:38.021Z,3532
2016-11-24T10:18:38.316Z,3528
2016-11-24T10:19:37.991Z,3532
2016-11-24T10:20:37.986Z,3488
2016-11-24T10:21:37.968Z,3448
2016-11-24T10:22:38.273Z,3412
2016-11-24T10:23:37.955Z,3408
2016-11-24T10:24:37.950Z,3424
2016-11-24T10:25:37.930Z,3428
2016-11-24T10:26:37.928Z,3408
2016-11-24T10:27:37.923Z,3408
2016-11-24T10:28:37.907Z,3460
2016-11-24T10:29:37.900Z,3540
2016-11-24T10:30:37.914Z,3588
2016-11-24T10:31:37.876Z,3636
2016-11-24T10:32:37.867Z,3668
2016-11-24T10:33:37.867Z,3716
2016-11-24T10:34:38.157Z,3740
2016-11-24T10:35:37.840Z,3780
2016-11-24T10:36:37.916Z,3816
2016-11-24T10:37:37.877Z,3884
2016-11-24T10:38:37.816Z,3932
2016-11-24T10:39:37.806Z,4000
2016-11-24T10:40:37.788Z,4024
2016-11-24T10:41:37.780Z,4064
2016-11-24T10:42:38.091Z,4128
2016-11-24T10:43:37.773Z,4184
2016-11-24T10:44:37.752Z,4212
2016-11-24T10:45:37.742Z,4260
2016-11-24T10:46:37.728Z,4312
2016-11-24T10:47:37.726Z,4344
2016-11-24T10:48:37.728Z,4336
2016-11-24T10:49:37.710Z,4336
2016-11-24T10:50:37.730Z,4376
2016-11-24T10:51:37.686Z,4404
2016-11-24T10:52:37.673Z,4424
2016-11-24T10:53:37.672Z,4440
2016-11-24T10:54:37.661Z,4456
2016-11-24T10:55:37.648Z,4488
2016-11-24T10:56:37.642Z,4500
2016-11-24T10:57:37.627Z,4544
2016-11-24T10:58:37.665Z,4612
2016-11-24T10:59:37.609Z,4640
2016-11-24T11:00:37.608Z,4672
2016-11-24T11:01:37.592Z,4720
2016-11-24T11:02:37.590Z,4752
2016-11-24T11:03:37.570Z,4772
2016-11-24T11:04:37.570Z,4764
2016-11-24T11:05:37.558Z,4780
2016-11-24T11:06:37.858Z,4824
2016-11-24T11:07:37.537Z,4848
2016-11-24T11:08:37.528Z,4844
2016-11-24T11:09:37.514Z,4840
2016-11-24T11:10:37.518Z,4872
2016-11-24T11:11:37.510Z,4916
2016-11-24T11:12:37.489Z,4968
2016-11-24T11:13:37.515Z,4996
2016-11-24T11:14:37.473Z,5036
2016-11-24T11:15:37.460Z,5040
2016-11-24T11:16:37.461Z,5036
2016-11-24T11:17:37.444Z,5036
2016-11-24T11:18:37.430Z,4992
2016-11-24T11:19:37.425Z,4964
2016-11-24T11:20:37.417Z,4936
2016-11-24T11:21:37.717Z,4932
2016-11-24T11:22:37.404Z,4912
2016-11-24T11:23:37.392Z,4896
2016-11-24T11:24:37.685Z,4872
2016-11-24T11:25:37.380Z,4836
2016-11-24T11:26:37.367Z,4812
2016-11-24T11:27:37.358Z,4780
2016-11-24T11:28:37.343Z,4756
2016-11-24T11:29:37.347Z,4732
2016-11-24T11:30:37.325Z,4712
2016-11-24T11:31:37.316Z,4700
2016-11-24T11:32:37.325Z,4680
2016-11-24T11:33:37.301Z,4656
2016-11-24T11:34:37.300Z,4628
2016-11-24T11:35:37.285Z,4604
2016-11-24T11:36:37.278Z,4596
2016-11-24T11:37:37.269Z,4580
2016-11-24T11:38:37.254Z,4560
2016-11-24T11:39:37.254Z,4536
2016-11-24T11:40:37.238Z,4524
2016-11-24T11:41:37.221Z,4512
2016-11-24T11:42:37.218Z,4504
2016-11-24T11:43:37.214Z,4496
2016-11-24T11:44:37.196Z,4500
2016-11-24T11:45:37.198Z,4496
2016-11-24T11:46:37.186Z,4512
2016-11-24T11:47:37.171Z,4540
2016-11-24T11:48:37.166Z,4568
2016-11-24T11:49:37.153Z,4608
2016-11-24T11:50:37.452Z,4648
2016-11-24T11:51:37.139Z,4692
2016-11-24T11:52:37.437Z,4740
2016-11-24T11:53:37.123Z,4776
2016-11-24T11:54:37.442Z,4824
2016-11-24T11:55:37.101Z,4872
2016-11-24T11:56:37.090Z,4908
2016-11-24T11:57:37.086Z,4948
2016-11-24T11:58:37.076Z,4996
2016-11-24T11:59:37.062Z,5048
2016-11-24T12:00:37.054Z,5096
2016-11-24T12:01:37.049Z,5160
2016-11-24T12:02:37.041Z,5208
2016-11-24T12:03:37.030Z,5276
2016-11-24T12:04:37.029Z,5352
2016-11-24T12:05:37.013Z,5420
2016-11-24T12:06:37.003Z,5488
2016-11-24T12:07:36.997Z,5556
2016-11-24T12:08:36.978Z,5624
2016-11-24T12:09:36.977Z,5684
2016-11-24T12:10:36.973Z,5736
2016-11-24T12:11:36.966Z,5784
2016-11-24T12:12:36.950Z,5824
2016-11-24T12:13:36.933Z,5868
2016-11-24T12:14:36.930Z,5904
2016-11-24T12:15:36.927Z,5940
2016-11-24T12:16:36.911Z,5976
2016-11-24T12:17:36.903Z,6004
2016-11-24T12:18:36.898Z,6036
2016-11-24T12:19:36.882Z,6064
2016-11-24T12:20:36.889Z,6092
2016-11-24T12:21:36.873Z,6112
2016-11-24T12:22:36.875Z,6132
2016-11-24T12:23:36.859Z,6148
2016-11-24T12:24:37.163Z,6164
2016-11-24T12:25:36.841Z,6192
2016-11-24T12:26:36.834Z,6216
2016-11-24T12:27:36.825Z,6236
2016-11-24T12:28:36.814Z,6252
2016-11-24T12:29:36.807Z,6264
2016-11-24T12:30:36.791Z,6268
2016-11-24T12:31:36.795Z,6268
2016-11-24T12:32:36.784Z,6264
2016-11-24T12:33:36.785Z,6256
2016-11-24T12:34:36.769Z,6244
2016-11-24T12:35:36.757Z,6224
2016-11-24T12:36:36.749Z,6220
2016-11-24T12:37:36.745Z,6224
2016-11-24T12:38:36.740Z,6232
2016-11-24T12:39:36.722Z,6244
2016-11-24T12:40:36.719Z,6244
2016-11-24T12:41:36.709Z,6252
2016-11-24T12:42:36.695Z,6248
2016-11-24T12:43:36.683Z,6240
2016-11-24T12:44:36.722Z,6216
2016-11-24T12:45:36.671Z,6192
2016-11-24T12:46:36.677Z,6164
2016-11-24T12:47:36.654Z,6132
2016-11-24T12:48:36.656Z,6096
2016-11-24T12:49:36.643Z,6060
2016-11-24T12:50:36.646Z,6032
2016-11-24T12:51:36.620Z,6004
2016-11-24T12:52:36.614Z,5980
2016-11-24T12:53:36.624Z,5968
2016-11-24T12:54:36.601Z,5952
2016-11-24T12:55:36.596Z,5932
2016-11-24T12:56:36.622Z,5916
2016-11-24T12:57:36.579Z,5908
2016-11-24T12:58:36.576Z,5904
2016-11-24T12:59:36.563Z,5888
2016-11-24T13:00:36.561Z,5868
2016-11-24T13:01:36.556Z,5836
2016-11-24T13:02:36.542Z,5808
2016-11-24T13:03:36.564Z,5780
2016-11-24T13:04:36.545Z,5740
2016-11-24T13:05:36.531Z,5692
2016-11-24T13:06:36.513Z,5632
2016-11-24T13:07:36.502Z,5568
2016-11-24T13:08:36.492Z,5504
2016-11-24T13:09:36.802Z,5440
2016-11-24T13:10:36.479Z,5372
2016-11-24T13:11:36.474Z,5304
2016-11-24T13:12:36.459Z,5236
2016-11-24T13:13:36.468Z,5168
2016-11-24T13:14:36.446Z,5104
2016-11-24T13:15:36.436Z,5036
2016-11-24T13:16:36.423Z,4976
2016-11-24T13:17:36.726Z,4916
2016-11-24T13:18:36.416Z,4856
2016-11-24T13:19:36.415Z,4808
2016-11-24T13:20:36.401Z,4756
2016-11-24T13:21:36.396Z,4708
2016-11-24T13:22:36.410Z,4656
2016-11-24T13:23:36.370Z,4600
2016-11-24T13:24:36.376Z,4552
2016-11-24T13:25:36.365Z,4504
2016-11-24T13:26:36.390Z,4452
2016-11-24T13:27:36.346Z,4404
2016-11-24T13:28:36.334Z,4360
2016-11-24T13:29:36.335Z,4320
2016-11-24T13:30:36.319Z,4284
2016-11-24T13:31:36.304Z,4248
2016-11-24T13:32:36.302Z,4208
2016-11-24T13:33:36.298Z,4168
2016-11-24T13:34:36.312Z,4128
2016-11-24T13:35:36.278Z,4092
2016-11-24T13:36:36.269Z,4048
2016-11-24T13:37:36.589Z,4004
2016-11-24T13:38:36.256Z,3960
2016-11-24T13:39:36.241Z,3912
2016-11-24T13:40:36.233Z,3864
2016-11-24T13:41:36.242Z,3812
2016-11-24T13:42:36.218Z,3772
2016-11-24T13:43:36.209Z,3732
2016-11-24T13:44:36.206Z,3692
2016-11-24T13:45:36.195Z,3656
2016-11-24T13:46:36.182Z,3612
2016-11-24T13:47:36.177Z,3572
2016-11-24T13:48:36.162Z,3532
2016-11-24T13:49:36.156Z,3492
2016-11-24T13:50:36.460Z,3448
2016-11-24T13:51:36.152Z,3404
2016-11-24T13:52:36.130Z,3352
2016-11-24T13:53:36.431Z,3304
2016-11-24T13:54:36.109Z,3244
2016-11-24T13:55:36.103Z,3176
2016-11-24T13:56:36.097Z,3100
2016-11-24T13:57:36.082Z,3028
2016-11-24T13:58:36.392Z,2964